KUNV 201253Z 23009KT 10SM SCT032 BKN037 BKN120 20/17 A2986